sensor_id;sensor_type;location;lat;lon;timestamp;temperature;humidity
17968;DHT22;9109;48.050;11.696;2023-05-10T03:46:44;14.80;99.90
17968;DHT22;9109;48.050;11.696;2023-05-10T03:51:08;14.90;99.90
17968;DHT22;9109;48.050;11.696;2023-05-10T03:54:37;14.90;99.90
17968;DHT22;9109;48.050;11.696;2023-05-10T04:06:04;14.80;99.90
17968;DHT22;9109;48.050;11.696;2023-05-10T04:09:06;14.70;99.90
17968;DHT22;9109;48.050;11.696;2023-05-10T04:12:08;14.70;99.90
17968;DHT22;9109;48.050;11.696;2023-05-10T04:15:10;14.70;99.90
17968;DHT22;9109;48.050;11.696;2023-05-10T04:18:12;14.70;99.90
17968;DHT22;9109;48.050;11.696;2023-05-10T04:21:16;14.70;99.90
17968;DHT22;9109;48.050;11.696;2023-05-10T04:24:17;14.70;99.90
17968;DHT22;9109;48.050;11.696;2023-05-10T04:27:19;14.80;99.90
17968;DHT22;9109;48.050;11.696;2023-05-10T04:30:21;14.80;99.90
17968;DHT22;9109;48.050;11.696;2023-05-10T04:33:23;14.70;99.90
17968;DHT22;9109;48.050;11.696;2023-05-10T04:36:26;14.70;99.90
17968;DHT22;9109;48.050;11.696;2023-05-10T04:39:29;14.70;99.90
17968;DHT22;9109;48.050;11.696;2023-05-10T04:42:31;14.70;99.90
17968;DHT22;9109;48.050;11.696;2023-05-10T04:45:33;14.70;99.90
17968;DHT22;9109;48.050;11.696;2023-05-10T04:48:35;14.70;99.90
17968;DHT22;9109;48.050;11.696;2023-05-10T04:51:38;14.70;99.90
17968;DHT22;9109;48.050;11.696;2023-05-10T04:54:40;14.70;99.90
17968;DHT22;9109;48.050;11.696;2023-05-10T04:57:42;14.70;99.90
17968;DHT22;9109;48.050;11.696;2023-05-10T05:00:45;14.70;99.90
17968;DHT22;9109;48.050;11.696;2023-05-10T05:03:47;14.70;99.90
17968;DHT22;9109;48.050;11.696;2023-05-10T05:06:50;14.70;99.90
17968;DHT22;9109;48.050;11.696;2023-05-10T05:09:52;14.70;99.90
17968;DHT22;9109;48.050;11.696;2023-05-10T05:12:54;14.70;99.90
17968;DHT22;9109;48.050;11.696;2023-05-10T05:15:56;14.70;99.90
17968;DHT22;9109;48.050;11.696;2023-05-10T05:18:58;14.60;99.90
17968;DHT22;9109;48.050;11.696;2023-05-10T05:22:02;14.50;99.90
17968;DHT22;9109;48.050;11.696;2023-05-10T05:25:05;14.50;99.90
17968;DHT22;9109;48.050;11.696;2023-05-10T05:28:07;14.60;99.90
17968;DHT22;9109;48.050;11.696;2023-05-10T05:31:09;14.50;99.90
17968;DHT22;9109;48.050;11.696;2023-05-10T05:34:11;14.50;99.90
17968;DHT22;9109;48.050;11.696;2023-05-10T05:37:15;14.50;99.90
17968;DHT22;9109;48.050;11.696;2023-05-10T05:40:17;14.50;99.90
17968;DHT22;9109;48.050;11.696;2023-05-10T05:43:19;14.30;99.90
17968;DHT22;9109;48.050;11.696;2023-05-10T05:46:21;14.30;99.90
17968;DHT22;9109;48.050;11.696;2023-05-10T05:49:23;14.30;99.90
17968;DHT22;9109;48.050;11.696;2023-05-10T05:52:26;14.40;99.90
17968;DHT22;9109;48.050;11.696;2023-05-10T05:55:28;14.30;99.90
17968;DHT22;9109;48.050;11.696;2023-05-10T05:58:31;14.30;99.90
17968;DHT22;9109;48.050;11.696;2023-05-10T06:01:33;14.20;99.90
17968;DHT22;9109;48.050;11.696;2023-05-10T06:04:35;14.20;99.90
17968;DHT22;9109;48.050;11.696;2023-05-10T06:07:39;14.10;99.90
17968;DHT22;9109;48.050;11.696;2023-05-10T06:10:42;13.90;99.90
17968;DHT22;9109;48.050;11.696;2023-05-10T06:13:44;13.70;99.90
17968;DHT22;9109;48.050;11.696;2023-05-10T06:16:47;13.70;99.90
17968;DHT22;9109;48.050;11.696;2023-05-10T06:19:49;13.80;99.90
17968;DHT22;9109;48.050;11.696;2023-05-10T06:22:52;13.80;99.90
17968;DHT22;9109;48.050;11.696;2023-05-10T06:25:54;13.80;99.90
17968;DHT22;9109;48.050;11.696;2023-05-10T06:28:56;13.70;99.90
17968;DHT22;9109;48.050;11.696;2023-05-10T06:31:58;13.70;99.90
17968;DHT22;9109;48.050;11.696;2023-05-10T06:35:00;13.70;99.90
17968;DHT22;9109;48.050;11.696;2023-05-10T06:38:03;13.70;99.90
17968;DHT22;9109;48.050;11.696;2023-05-10T06:41:05;13.80;99.90
17968;DHT22;9109;48.050;11.696;2023-05-10T06:44:07;13.80;99.90
17968;DHT22;9109;48.050;11.696;2023-05-10T06:47:09;13.90;99.90
17968;DHT22;9109;48.050;11.696;2023-05-10T06:50:11;14.00;99.90
17968;DHT22;9109;48.050;11.696;2023-05-10T06:53:15;14.00;99.90
17968;DHT22;9109;48.050;11.696;2023-05-10T06:56:17;14.10;99.90
17968;DHT22;9109;48.050;11.696;2023-05-10T06:59:19;14.10;99.90
17968;DHT22;9109;48.050;11.696;2023-05-10T07:02:22;14.10;99.90
17968;DHT22;9109;48.050;11.696;2023-05-10T07:05:24;14.20;99.90
17968;DHT22;9109;48.050;11.696;2023-05-10T07:08:29;14.30;99.90
17968;DHT22;9109;48.050;11.696;2023-05-10T07:11:31;14.40;99.90
17968;DHT22;9109;48.050;11.696;2023-05-10T07:14:33;14.50;99.90
17968;DHT22;9109;48.050;11.696;2023-05-10T07:17:35;14.70;99.90
17968;DHT22;9109;48.050;11.696;2023-05-10T07:20:37;14.70;99.90
17968;DHT22;9109;48.050;11.696;2023-05-10T07:23:40;14.70;99.90
17968;DHT22;9109;48.050;11.696;2023-05-10T07:26:43;14.70;99.90
17968;DHT22;9109;48.050;11.696;2023-05-10T07:29:44;14.70;99.90
17968;DHT22;9109;48.050;11.696;2023-05-10T07:32:49;14.80;99.90
17968;DHT22;9109;48.050;11.696;2023-05-10T07:35:51;14.70;99.90
17968;DHT22;9109;48.050;11.696;2023-05-10T07:38:54;14.70;99.90
17968;DHT22;9109;48.050;11.696;2023-05-10T07:41:57;14.70;99.90
17968;DHT22;9109;48.050;11.696;2023-05-10T07:44:59;14.60;99.90
17968;DHT22;9109;48.050;11.696;2023-05-10T07:48:01;14.70;99.90
17968;DHT22;9109;48.050;11.696;2023-05-10T07:51:03;14.80;99.90
17968;DHT22;9109;48.050;11.696;2023-05-10T07:54:08;14.80;99.90
17968;DHT22;9109;48.050;11.696;2023-05-10T07:57:10;14.90;99.90
17968;DHT22;9109;48.050;11.696;2023-05-10T08:00:18;15.00;99.90
17968;DHT22;9109;48.050;11.696;2023-05-10T08:03:20;15.10;99.90
17968;DHT22;9109;48.050;11.696;2023-05-10T08:06:22;15.00;99.90
17968;DHT22;9109;48.050;11.696;2023-05-10T08:09:25;15.00;99.90
17968;DHT22;9109;48.050;11.696;2023-05-10T08:12:27;15.00;99.90
17968;DHT22;9109;48.050;11.696;2023-05-10T08:15:29;15.10;99.90
17968;DHT22;9109;48.050;11.696;2023-05-10T08:18:31;15.20;99.90
17968;DHT22;9109;48.050;11.696;2023-05-10T08:21:33;15.30;99.90
17968;DHT22;9109;48.050;11.696;2023-05-10T08:24:37;15.30;99.90
17968;DHT22;9109;48.050;11.696;2023-05-10T08:27:39;15.30;99.90
17968;DHT22;9109;48.050;11.696;2023-05-10T08:30:41;15.30;99.90
17968;DHT22;9109;48.050;11.696;2023-05-10T08:33:43;15.40;99.90
17968;DHT22;9109;48.050;11.696;2023-05-10T08:36:45;15.40;99.90
17968;DHT22;9109;48.050;11.696;2023-05-10T08:39:48;15.40;99.90
17968;DHT22;9109;48.050;11.696;2023-05-10T08:42:55;15.40;99.90
17968;DHT22;9109;48.050;11.696;2023-05-10T08:46:00;15.50;99.90
17968;DHT22;9109;48.050;11.696;2023-05-10T08:49:04;15.70;99.90
17968;DHT22;9109;48.050;11.696;2023-05-10T08:52:08;15.90;99.90
17968;DHT22;9109;48.050;11.696;2023-05-10T08:55:13;16.00;99.90
17968;DHT22;9109;48.050;11.696;2023-05-10T08:58:15;15.90;99.90
17968;DHT22;9109;48.050;11.696;2023-05-10T09:01:18;15.90;99.90
17968;DHT22;9109;48.050;11.696;2023-05-10T09:04:21;15.70;99.90
17968;DHT22;9109;48.050;11.696;2023-05-10T09:07:23;15.60;99.90
17968;DHT22;9109;48.050;11.696;2023-05-10T09:10:26;15.40;99.90
17968;DHT22;9109;48.050;11.696;2023-05-10T09:13:29;15.10;99.90
17968;DHT22;9109;48.050;11.696;2023-05-10T09:16:32;14.70;99.90
17968;DHT22;9109;48.050;11.696;2023-05-10T09:19:34;14.40;99.90
17968;DHT22;9109;48.050;11.696;2023-05-10T09:22:36;14.50;99.90
17968;DHT22;9109;48.050;11.696;2023-05-10T09:25:41;14.60;99.90
17968;DHT22;9109;48.050;11.696;2023-05-10T09:28:53;14.60;99.90
17968;DHT22;9109;48.050;11.696;2023-05-10T09:31:56;14.70;99.90
17968;DHT22;9109;48.050;11.696;2023-05-10T09:35:06;14.80;99.90
17968;DHT22;9109;48.050;11.696;2023-05-10T09:38:08;14.90;99.90
17968;DHT22;9109;48.050;11.696;2023-05-10T09:41:17;15.00;99.90
17968;DHT22;9109;48.050;11.696;2023-05-10T09:44:19;15.20;99.90
17968;DHT22;9109;48.050;11.696;2023-05-10T09:47:21;15.30;99.90
17968;DHT22;9109;48.050;11.696;2023-05-10T09:50:25;15.30;99.90
17968;DHT22;9109;48.050;11.696;2023-05-10T09:53:27;15.30;99.90
17968;DHT22;9109;48.050;11.696;2023-05-10T09:56:36;15.30;99.90
17968;DHT22;9109;48.050;11.696;2023-05-10T09:59:42;15.40;99.90
17968;DHT22;9109;48.050;11.696;2023-05-10T10:02:46;15.60;99.90
17968;DHT22;9109;48.050;11.696;2023-05-10T10:05:48;15.70;99.90
17968;DHT22;9109;48.050;11.696;2023-05-10T10:08:51;15.70;99.90
17968;DHT22;9109;48.050;11.696;2023-05-10T10:11:54;15.90;99.90
17968;DHT22;9109;48.050;11.696;2023-05-10T10:14:57;16.10;99.90
17968;DHT22;9109;48.050;11.696;2023-05-10T10:18:02;16.30;99.90
17968;DHT22;9109;48.050;11.696;2023-05-10T10:21:05;16.30;99.90
17968;DHT22;9109;48.050;11.696;2023-05-10T10:24:07;16.50;99.90
17968;DHT22;9109;48.050;11.696;2023-05-10T10:27:19;16.60;99.90
17968;DHT22;9109;48.050;11.696;2023-05-10T10:30:39;16.70;99.90
17968;DHT22;9109;48.050;11.696;2023-05-10T10:33:56;16.80;99.90
17968;DHT22;9109;48.050;11.696;2023-05-10T10:37:04;16.80;99.90
17968;DHT22;9109;48.050;11.696;2023-05-10T10:40:28;16.80;99.90
17968;DHT22;9109;48.050;11.696;2023-05-10T10:43:32;16.90;99.90
17968;DHT22;9109;48.050;11.696;2023-05-10T10:46:34;16.90;99.90
17968;DHT22;9109;48.050;11.696;2023-05-10T10:49:44;17.00;99.90
17968;DHT22;9109;48.050;11.696;2023-05-10T10:52:52;17.00;99.90
17968;DHT22;9109;48.050;11.696;2023-05-10T10:56:04;17.00;99.90
17968;DHT22;9109;48.050;11.696;2023-05-10T10:59:09;17.00;99.90
17968;DHT22;9109;48.050;11.696;2023-05-10T11:02:34;17.00;99.90
17968;DHT22;9109;48.050;11.696;2023-05-10T11:05:39;17.10;99.90
17968;DHT22;9109;48.050;11.696;2023-05-10T11:08:42;16.90;99.90
17968;DHT22;9109;48.050;11.696;2023-05-10T11:11:52;16.80;99.90
17968;DHT22;9109;48.050;11.696;2023-05-10T11:14:58;16.90;99.90
17968;DHT22;9109;48.050;11.696;2023-05-10T11:18:16;16.80;99.90
17968;DHT22;9109;48.050;11.696;2023-05-10T11:21:19;16.80;99.90
17968;DHT22;9109;48.050;11.696;2023-05-10T11:24:22;16.90;99.90
17968;DHT22;9109;48.050;11.696;2023-05-10T11:27:24;17.00;99.90
17968;DHT22;9109;48.050;11.696;2023-05-10T11:30:28;17.00;99.90
17968;DHT22;9109;48.050;11.696;2023-05-10T11:33:30;17.00;99.90
17968;DHT22;9109;48.050;11.696;2023-05-10T11:36:34;16.80;99.90
17968;DHT22;9109;48.050;11.696;2023-05-10T11:39:36;16.60;99.90
17968;DHT22;9109;48.050;11.696;2023-05-10T11:42:38;16.40;99.90
17968;DHT22;9109;48.050;11.696;2023-05-10T11:45:42;16.30;99.90
17968;DHT22;9109;48.050;11.696;2023-05-10T11:48:44;16.10;99.90
17968;DHT22;9109;48.050;11.696;2023-05-10T11:51:46;16.00;99.90
17968;DHT22;9109;48.050;11.696;2023-05-10T11:54:51;15.90;99.90
17968;DHT22;9109;48.050;11.696;2023-05-10T11:57:53;15.80;99.90
17968;DHT22;9109;48.050;11.696;2023-05-10T12:00:57;15.50;99.90
17968;DHT22;9109;48.050;11.696;2023-05-10T12:04:00;15.40;99.90
17968;DHT22;9109;48.050;11.696;2023-05-10T12:07:02;15.30;99.90
17968;DHT22;9109;48.050;11.696;2023-05-10T12:10:09;15.20;99.90
17968;DHT22;9109;48.050;11.696;2023-05-10T12:13:13;15.20;99.90
17968;DHT22;9109;48.050;11.696;2023-05-10T12:16:18;15.20;99.90
17968;DHT22;9109;48.050;11.696;2023-05-10T12:19:21;15.10;99.90
17968;DHT22;9109;48.050;11.696;2023-05-10T12:22:23;15.10;99.90
17968;DHT22;9109;48.050;11.696;2023-05-10T12:25:30;15.00;99.90
17968;DHT22;9109;48.050;11.696;2023-05-10T12:28:33;14.90;99.90
17968;DHT22;9109;48.050;11.696;2023-05-10T12:31:51;14.90;99.90
17968;DHT22;9109;48.050;11.696;2023-05-10T12:34:53;14.80;99.90
17968;DHT22;9109;48.050;11.696;2023-05-10T12:37:55;14.80;99.90
17968;DHT22;9109;48.050;11.696;2023-05-10T12:40:58;14.80;99.90
17968;DHT22;9109;48.050;11.696;2023-05-10T12:44:00;14.80;99.90
17968;DHT22;9109;48.050;11.696;2023-05-10T12:47:04;14.70;99.90
17968;DHT22;9109;48.050;11.696;2023-05-10T12:50:06;14.70;99.90
17968;DHT22;9109;48.050;11.696;2023-05-10T12:53:08;14.70;99.90
17968;DHT22;9109;48.050;11.696;2023-05-10T12:56:11;14.60;99.90
17968;DHT22;9109;48.050;11.696;2023-05-10T12:59:12;14.60;99.90
17968;DHT22;9109;48.050;11.696;2023-05-10T13:02:16;14.60;99.90
17968;DHT22;9109;48.050;11.696;2023-05-10T13:05:19;14.60;99.90
17968;DHT22;9109;48.050;11.696;2023-05-10T13:08:20;14.60;99.90
17968;DHT22;9109;48.050;11.696;2023-05-10T13:11:22;14.60;99.90
17968;DHT22;9109;48.050;11.696;2023-05-10T13:14:24;14.60;99.90
17968;DHT22;9109;48.050;11.696;2023-05-10T13:17:28;14.60;99.90
17968;DHT22;9109;48.050;11.696;2023-05-10T13:20:30;14.70;99.90
17968;DHT22;9109;48.050;11.696;2023-05-10T13:23:32;14.80;99.90
17968;DHT22;9109;48.050;11.696;2023-05-10T13:26:33;14.80;99.90
17968;DHT22;9109;48.050;11.696;2023-05-10T13:29:36;14.80;99.90
17968;DHT22;9109;48.050;11.696;2023-05-10T13:32:40;14.90;99.90
17968;DHT22;9109;48.050;11.696;2023-05-10T13:35:45;14.90;99.90
17968;DHT22;9109;48.050;11.696;2023-05-10T13:42:52;15.00;99.90
17968;DHT22;9109;48.050;11.696;2023-05-10T13:45:54;14.90;99.90
17968;DHT22;9109;48.050;11.696;2023-05-10T13:48:58;15.00;99.90
17968;DHT22;9109;48.050;11.696;2023-05-10T13:52:00;15.00;99.90
17968;DHT22;9109;48.050;11.696;2023-05-10T13:55:07;15.10;99.90
17968;DHT22;9109;48.050;11.696;2023-05-10T13:58:11;15.10;99.90
17968;DHT22;9109;48.050;11.696;2023-05-10T14:01:13;15.10;99.90
17968;DHT22;9109;48.050;11.696;2023-05-10T14:04:17;15.10;99.90
17968;DHT22;9109;48.050;11.696;2023-05-10T14:07:19;15.10;99.90
17968;DHT22;9109;48.050;11.696;2023-05-10T14:10:21;15.10;99.90
17968;DHT22;9109;48.050;11.696;2023-05-10T14:13:23;15.10;99.90
17968;DHT22;9109;48.050;11.696;2023-05-10T14:16:26;15.00;99.90
17968;DHT22;9109;48.050;11.696;2023-05-10T14:19:29;15.10;99.90
17968;DHT22;9109;48.050;11.696;2023-05-10T14:22:33;15.10;99.90
17968;DHT22;9109;48.050;11.696;2023-05-10T14:25:35;15.20;99.90
17968;DHT22;9109;48.050;11.696;2023-05-10T14:28:38;15.10;99.90
17968;DHT22;9109;48.050;11.696;2023-05-10T14:31:40;15.10;99.90
17968;DHT22;9109;48.050;11.696;2023-05-10T14:34:44;15.00;99.90
17968;DHT22;9109;48.050;11.696;2023-05-10T14:37:46;14.90;99.90
17968;DHT22;9109;48.050;11.696;2023-05-10T14:40:48;14.90;99.90
17968;DHT22;9109;48.050;11.696;2023-05-10T14:43:50;14.90;99.90
17968;DHT22;9109;48.050;11.696;2023-05-10T14:46:52;14.90;99.90
17968;DHT22;9109;48.050;11.696;2023-05-10T14:49:55;14.90;99.90
17968;DHT22;9109;48.050;11.696;2023-05-10T14:52:58;14.90;99.90
17968;DHT22;9109;48.050;11.696;2023-05-10T14:56:00;14.80;99.90
17968;DHT22;9109;48.050;11.696;2023-05-10T14:59:04;14.80;99.90
17968;DHT22;9109;48.050;11.696;2023-05-10T15:02:06;14.70;99.90
17968;DHT22;9109;48.050;11.696;2023-05-10T15:05:10;14.70;99.90
17968;DHT22;9109;48.050;11.696;2023-05-10T15:08:12;14.70;99.90
17968;DHT22;9109;48.050;11.696;2023-05-10T15:11:14;14.60;99.90
17968;DHT22;9109;48.050;11.696;2023-05-10T15:14:16;14.70;99.90
17968;DHT22;9109;48.050;11.696;2023-05-10T15:17:18;14.70;99.90
17968;DHT22;9109;48.050;11.696;2023-05-10T15:20:21;14.60;99.90
17968;DHT22;9109;48.050;11.696;2023-05-10T15:23:23;14.40;99.90
17968;DHT22;9109;48.050;11.696;2023-05-10T15:26:27;14.40;99.90
17968;DHT22;9109;48.050;11.696;2023-05-10T15:29:29;14.30;99.90
17968;DHT22;9109;48.050;11.696;2023-05-10T15:32:32;14.40;99.90
17968;DHT22;9109;48.050;11.696;2023-05-10T15:35:39;14.30;99.90
17968;DHT22;9109;48.050;11.696;2023-05-10T15:38:41;14.30;99.90
17968;DHT22;9109;48.050;11.696;2023-05-10T15:41:43;14.30;99.90
17968;DHT22;9109;48.050;11.696;2023-05-10T15:44:45;14.20;99.90
17968;DHT22;9109;48.050;11.696;2023-05-10T15:47:50;14.30;99.90
17968;DHT22;9109;48.050;11.696;2023-05-10T15:51:16;14.20;99.90
17968;DHT22;9109;48.050;11.696;2023-05-10T15:54:19;14.30;99.90
17968;DHT22;9109;48.050;11.696;2023-05-10T15:57:24;14.30;99.90
17968;DHT22;9109;48.050;11.696;2023-05-10T16:00:27;14.40;99.90
17968;DHT22;9109;48.050;11.696;2023-05-10T16:03:29;14.30;99.90
17968;DHT22;9109;48.050;11.696;2023-05-10T16:06:34;14.30;99.90
17968;DHT22;9109;48.050;11.696;2023-05-10T16:09:36;14.40;99.90
17968;DHT22;9109;48.050;11.696;2023-05-10T16:12:40;14.30;99.90
17968;DHT22;9109;48.050;11.696;2023-05-10T16:15:42;14.30;99.90
17968;DHT22;9109;48.050;11.696;2023-05-10T16:18:44;14.30;99.90
17968;DHT22;9109;48.050;11.696;2023-05-10T16:21:47;14.30;99.90
17968;DHT22;9109;48.050;11.696;2023-05-10T16:24:50;14.20;99.90
17968;DHT22;9109;48.050;11.696;2023-05-10T16:27:57;14.20;99.90
17968;DHT22;9109;48.050;11.696;2023-05-10T16:30:59;14.20;99.90
17968;DHT22;9109;48.050;11.696;2023-05-10T16:34:01;14.20;99.90
17968;DHT22;9109;48.050;11.696;2023-05-10T16:37:08;14.10;99.90
17968;DHT22;9109;48.050;11.696;2023-05-10T16:40:15;14.10;99.90
17968;DHT22;9109;48.050;11.696;2023-05-10T16:43:17;14.10;99.90
17968;DHT22;9109;48.050;11.696;2023-05-10T16:46:19;14.10;99.90
17968;DHT22;9109;48.050;11.696;2023-05-10T16:49:21;14.10;99.90
17968;DHT22;9109;48.050;11.696;2023-05-10T16:52:25;14.10;99.90
17968;DHT22;9109;48.050;11.696;2023-05-10T16:55:27;14.10;99.90
17968;DHT22;9109;48.050;11.696;2023-05-10T16:58:29;14.10;99.90
17968;DHT22;9109;48.050;11.696;2023-05-10T17:01:38;14.00;99.90
17968;DHT22;9109;48.050;11.696;2023-05-10T17:04:40;14.00;99.90
17968;DHT22;9109;48.050;11.696;2023-05-10T17:07:44;13.90;99.90
17968;DHT22;9109;48.050;11.696;2023-05-10T17:10:46;13.70;99.90
17968;DHT22;9109;48.050;11.696;2023-05-10T17:13:48;13.70;99.90
17968;DHT22;9109;48.050;11.696;2023-05-10T17:16:54;13.80;99.90
17968;DHT22;9109;48.050;11.696;2023-05-10T17:20:00;13.80;99.90
17968;DHT22;9109;48.050;11.696;2023-05-10T17:23:03;13.70;99.90
17968;DHT22;9109;48.050;11.696;2023-05-10T17:26:06;13.70;99.90
17968;DHT22;9109;48.050;11.696;2023-05-10T17:29:08;13.80;99.90
17968;DHT22;9109;48.050;11.696;2023-05-10T17:32:10;13.60;99.90
17968;DHT22;9109;48.050;11.696;2023-05-10T17:35:12;13.70;99.90
17968;DHT22;9109;48.050;11.696;2023-05-10T17:38:15;13.60;99.90
17968;DHT22;9109;48.050;11.696;2023-05-10T17:41:17;13.60;99.90
17968;DHT22;9109;48.050;11.696;2023-05-10T17:44:21;13.50;99.90
17968;DHT22;9109;48.050;11.696;2023-05-10T17:47:25;13.50;99.90
17968;DHT22;9109;48.050;11.696;2023-05-10T17:50:29;13.50;99.90
17968;DHT22;9109;48.050;11.696;2023-05-10T17:53:38;13.30;99.90
17968;DHT22;9109;48.050;11.696;2023-05-10T17:56:44;13.20;99.90
17968;DHT22;9109;48.050;11.696;2023-05-10T17:59:46;13.10;99.90
17968;DHT22;9109;48.050;11.696;2023-05-10T18:02:49;13.20;99.90
17968;DHT22;9109;48.050;11.696;2023-05-10T18:05:53;13.10;99.90
17968;DHT22;9109;48.050;11.696;2023-05-10T18:08:59;13.00;99.90
17968;DHT22;9109;48.050;11.696;2023-05-10T18:12:02;13.00;99.90
17968;DHT22;9109;48.050;11.696;2023-05-10T18:15:06;13.00;99.90
17968;DHT22;9109;48.050;11.696;2023-05-10T18:18:11;13.00;99.90
17968;DHT22;9109;48.050;11.696;2023-05-10T18:21:13;13.10;99.90
17968;DHT22;9109;48.050;11.696;2023-05-10T18:24:17;13.10;99.90
17968;DHT22;9109;48.050;11.696;2023-05-10T18:27:21;13.10;99.90
17968;DHT22;9109;48.050;11.696;2023-05-10T18:30:25;13.10;99.90
17968;DHT22;9109;48.050;11.696;2023-05-10T18:33:27;13.00;99.90
17968;DHT22;9109;48.050;11.696;2023-05-10T18:36:29;12.90;99.90
17968;DHT22;9109;48.050;11.696;2023-05-10T18:43:19;12.90;99.90
17968;DHT22;9109;48.050;11.696;2023-05-10T18:46:21;12.80;99.90
17968;DHT22;9109;48.050;11.696;2023-05-10T18:49:23;12.90;99.90
17968;DHT22;9109;48.050;11.696;2023-05-10T20:02:32;12.20;99.90
17968;DHT22;9109;48.050;11.696;2023-05-10T20:05:36;12.20;99.90
17968;DHT22;9109;48.050;11.696;2023-05-10T20:08:38;12.20;99.90
17968;DHT22;9109;48.050;11.696;2023-05-10T20:11:40;12.20;99.90
17968;DHT22;9109;48.050;11.696;2023-05-10T20:14:45;12.10;99.90
17968;DHT22;9109;48.050;11.696;2023-05-10T20:17:50;12.10;99.90
17968;DHT22;9109;48.050;11.696;2023-05-10T20:20:52;12.10;99.90
17968;DHT22;9109;48.050;11.696;2023-05-10T20:23:55;12.20;99.90
17968;DHT22;9109;48.050;11.696;2023-05-10T20:26:57;12.20;99.90
17968;DHT22;9109;48.050;11.696;2023-05-10T20:30:01;12.20;99.90
17968;DHT22;9109;48.050;11.696;2023-05-10T20:33:03;12.30;99.90
17968;DHT22;9109;48.050;11.696;2023-05-10T20:36:06;12.30;99.90
17968;DHT22;9109;48.050;11.696;2023-05-10T20:39:09;12.20;99.90
17968;DHT22;9109;48.050;11.696;2023-05-10T20:42:11;12.20;99.90
17968;DHT22;9109;48.050;11.696;2023-05-10T20:45:15;12.10;99.90
17968;DHT22;9109;48.050;11.696;2023-05-10T20:48:17;12.10;99.90
17968;DHT22;9109;48.050;11.696;2023-05-10T20:51:20;12.10;99.90
17968;DHT22;9109;48.050;11.696;2023-05-10T20:54:22;12.00;99.90
17968;DHT22;9109;48.050;11.696;2023-05-10T20:57:24;12.00;99.90
17968;DHT22;9109;48.050;11.696;2023-05-10T21:00:28;12.10;99.90
17968;DHT22;9109;48.050;11.696;2023-05-10T21:03:30;12.10;99.90
17968;DHT22;9109;48.050;11.696;2023-05-10T21:06:32;12.20;99.90
17968;DHT22;9109;48.050;11.696;2023-05-10T21:09:34;12.20;99.90
17968;DHT22;9109;48.050;11.696;2023-05-10T21:12:36;12.10;99.90
17968;DHT22;9109;48.050;11.696;2023-05-10T21:15:39;12.10;99.90
17968;DHT22;9109;48.050;11.696;2023-05-10T21:18:41;12.20;99.90
17968;DHT22;9109;48.050;11.696;2023-05-10T21:21:43;12.20;99.90
17968;DHT22;9109;48.050;11.696;2023-05-10T21:24:45;12.20;99.90
17968;DHT22;9109;48.050;11.696;2023-05-10T21:27:47;12.30;99.90
17968;DHT22;9109;48.050;11.696;2023-05-10T21:30:50;12.30;99.90
17968;DHT22;9109;48.050;11.696;2023-05-10T21:33:52;12.30;99.90
17968;DHT22;9109;48.050;11.696;2023-05-10T21:36:54;12.20;99.90
17968;DHT22;9109;48.050;11.696;2023-05-10T21:39:56;12.10;99.90
17968;DHT22;9109;48.050;11.696;2023-05-10T21:42:58;12.00;99.90
17968;DHT22;9109;48.050;11.696;2023-05-10T21:46:01;11.90;99.90
17968;DHT22;9109;48.050;11.696;2023-05-10T21:49:03;11.90;99.90
17968;DHT22;9109;48.050;11.696;2023-05-10T21:52:05;11.90;99.90
17968;DHT22;9109;48.050;11.696;2023-05-10T21:55:08;11.90;99.90
17968;DHT22;9109;48.050;11.696;2023-05-10T21:58:10;11.80;99.90
17968;DHT22;9109;48.050;11.696;2023-05-10T22:01:13;11.70;99.90
17968;DHT22;9109;48.050;11.696;2023-05-10T22:04:17;11.80;99.90
17968;DHT22;9109;48.050;11.696;2023-05-10T22:07:19;11.70;99.90
17968;DHT22;9109;48.050;11.696;2023-05-10T22:10:21;11.70;99.90
17968;DHT22;9109;48.050;11.696;2023-05-10T22:13:23;11.70;99.90
